DLH241 EDDF-EDDM
Flight info
| Callsign | DLH241 |
|---|---|
| Flight time | 0h 30m |
| Altitude | 23000 |
| Route | CINDY7S CINDY Z74 HAREM T104 ROKIL ROKIL1A |
| Aircraft | A20N/M-SDE2E3FGHIRWXY/LB1 |
Departure
| Time | 2026-05-04 15:34 |
|---|---|
| Airport | Frankfurt Main Airport (EDDF) |
Arrival
| Time | 2026-05-04 16:04 |
|---|---|
| Airport | Munich Airport (EDDM) |
| Time | Latitude | Longitude | Altitude | Speed | Heading |
|---|---|---|---|---|---|
| 2026-05-04 14:47 | 50.04466 | 8.56485 | 355 ft | 0 kts | 159° |
| 2026-05-04 15:21 | 50.04471 | 8.56482 | 364 ft | 1 kts | 159° |
| 2026-05-04 15:22 | 50.04478 | 8.56478 | 363 ft | 1 kts | 160° |
| 2026-05-04 15:22 | 50.04486 | 8.56474 | 363 ft | 1 kts | 167° |
| 2026-05-04 15:22 | 50.04505 | 8.56470 | 360 ft | 2 kts | 186° |
| 2026-05-04 15:23 | 50.04516 | 8.56475 | 359 ft | 0 kts | 227° |
| 2026-05-04 15:23 | 50.04510 | 8.56468 | 361 ft | 0 kts | 221° |
| 2026-05-04 15:23 | 50.04510 | 8.56455 | 361 ft | 2 kts | 267° |
| 2026-05-04 15:23 | 50.04521 | 8.56413 | 358 ft | 5 kts | 284° |
| 2026-05-04 15:24 | 50.04518 | 8.56404 | 358 ft | 0 kts | 248° |
| 2026-05-04 15:25 | 50.04511 | 8.56377 | 362 ft | 5 kts | 249° |
| 2026-05-04 15:25 | 50.04495 | 8.56306 | 357 ft | 8 kts | 252° |
| 2026-05-04 15:26 | 50.04447 | 8.56094 | 362 ft | 1 kts | 250° |
| 2026-05-04 15:26 | 50.04447 | 8.56093 | 362 ft | 1 kts | 250° |
| 2026-05-04 15:26 | 50.04430 | 8.56049 | 363 ft | 4 kts | 227° |
| 2026-05-04 15:27 | 50.04391 | 8.56031 | 356 ft | 8 kts | 173° |
| 2026-05-04 15:27 | 50.04254 | 8.56002 | 358 ft | 14 kts | 244° |
| 2026-05-04 15:28 | 50.04176 | 8.55679 | 358 ft | 18 kts | 250° |
| 2026-05-04 15:28 | 50.04132 | 8.55497 | 354 ft | 16 kts | 249° |
| 2026-05-04 15:28 | 50.04051 | 8.55163 | 357 ft | 17 kts | 251° |
| 2026-05-04 15:29 | 50.04009 | 8.54979 | 361 ft | 19 kts | 250° |
| 2026-05-04 15:30 | 50.03853 | 8.54358 | 354 ft | 5 kts | 238° |
| 2026-05-04 15:30 | 50.03756 | 8.54047 | 347 ft | 17 kts | 250° |
| 2026-05-04 15:31 | 50.03664 | 8.53655 | 342 ft | 21 kts | 249° |
| 2026-05-04 15:31 | 50.03616 | 8.53462 | 339 ft | 18 kts | 249° |
| 2026-05-04 15:32 | 50.03474 | 8.52877 | 335 ft | 19 kts | 248° |
| 2026-05-04 15:32 | 50.03344 | 8.52594 | 335 ft | 16 kts | 186° |
| 2026-05-04 15:33 | 50.03077 | 8.52594 | 335 ft | 63 kts | 180° |
| 2026-05-04 15:34 | 50.00272 | 8.52659 | 903 ft | 162 kts | 181° |
| 2026-05-04 15:34 | 49.99144 | 8.52668 | 1510 ft | 164 kts | 184° |
| 2026-05-04 15:34 | 49.96794 | 8.53239 | 2570 ft | 192 kts | 150° |
| 2026-05-04 15:35 | 49.95081 | 8.56879 | 3595 ft | 232 kts | 118° |
| 2026-05-04 15:35 | 49.94352 | 8.59199 | 4284 ft | 244 kts | 109° |
| 2026-05-04 15:35 | 49.94021 | 8.61756 | 5349 ft | 239 kts | 94° |
| 2026-05-04 15:36 | 49.93824 | 8.67223 | 6715 ft | 271 kts | 103° |
| 2026-05-04 15:36 | 49.93110 | 8.69909 | 7509 ft | 271 kts | 130° |
| 2026-05-04 15:36 | 49.91732 | 8.71859 | 8459 ft | 270 kts | 147° |
| 2026-05-04 15:37 | 49.90192 | 8.73547 | 9348 ft | 274 kts | 148° |
| 2026-05-04 15:37 | 49.88717 | 8.75483 | 9768 ft | 280 kts | 136° |
| 2026-05-04 15:37 | 49.87538 | 8.77915 | 9923 ft | 285 kts | 123° |
| 2026-05-04 15:37 | 49.86578 | 8.80625 | 9964 ft | 287 kts | 122° |
| 2026-05-04 15:38 | 49.85607 | 8.83355 | 10013 ft | 293 kts | 122° |
| 2026-05-04 15:38 | 49.84581 | 8.86197 | 10179 ft | 314 kts | 122° |
| 2026-05-04 15:38 | 49.83473 | 8.89246 | 10602 ft | 332 kts | 122° |
| 2026-05-04 15:38 | 49.82330 | 8.92391 | 11391 ft | 337 kts | 122° |
| 2026-05-04 15:39 | 49.81172 | 8.95578 | 12219 ft | 342 kts | 122° |
| 2026-05-04 15:39 | 49.79997 | 8.98804 | 13001 ft | 347 kts | 122° |
| 2026-05-04 15:39 | 49.77575 | 9.05439 | 14487 ft | 358 kts | 122° |
| 2026-05-04 15:40 | 49.76444 | 9.08915 | 15193 ft | 366 kts | 115° |
| 2026-05-04 15:40 | 49.75630 | 9.12676 | 15908 ft | 373 kts | 107° |
| 2026-05-04 15:40 | 49.74915 | 9.16490 | 16573 ft | 375 kts | 114° |
| 2026-05-04 15:40 | 49.73744 | 9.20101 | 17257 ft | 376 kts | 126° |
| 2026-05-04 15:41 | 49.72153 | 9.23302 | 17937 ft | 377 kts | 135° |
| 2026-05-04 15:41 | 49.70402 | 9.26366 | 18592 ft | 382 kts | 135° |
| 2026-05-04 15:41 | 49.68647 | 9.29456 | 19216 ft | 385 kts | 135° |
| 2026-05-04 15:41 | 49.66873 | 9.32588 | 19834 ft | 388 kts | 135° |
| 2026-05-04 15:42 | 49.65089 | 9.35741 | 20457 ft | 391 kts | 135° |
| 2026-05-04 15:42 | 49.63286 | 9.38922 | 21058 ft | 395 kts | 135° |
| 2026-05-04 15:42 | 49.61464 | 9.42131 | 21665 ft | 399 kts | 135° |
| 2026-05-04 15:42 | 49.59628 | 9.45361 | 22240 ft | 402 kts | 135° |
| 2026-05-04 15:43 | 49.57775 | 9.48615 | 22766 ft | 406 kts | 135° |
| 2026-05-04 15:43 | 49.55924 | 9.51863 | 22947 ft | 408 kts | 135° |
| 2026-05-04 15:43 | 49.54051 | 9.55146 | 22984 ft | 408 kts | 135° |
| 2026-05-04 15:43 | 49.52176 | 9.58428 | 22980 ft | 407 kts | 135° |
| 2026-05-04 15:44 | 49.50300 | 9.61707 | 22983 ft | 407 kts | 135° |
| 2026-05-04 15:44 | 49.48428 | 9.64973 | 22986 ft | 407 kts | 135° |
| 2026-05-04 15:44 | 49.46550 | 9.68247 | 22991 ft | 407 kts | 135° |
| 2026-05-04 15:44 | 49.44673 | 9.71515 | 22989 ft | 407 kts | 135° |
| 2026-05-04 15:45 | 49.42796 | 9.74778 | 22995 ft | 407 kts | 135° |
| 2026-05-04 15:45 | 49.40920 | 9.78035 | 22991 ft | 407 kts | 135° |
| 2026-05-04 15:45 | 49.39040 | 9.81296 | 22992 ft | 407 kts | 135° |
| 2026-05-04 15:45 | 49.37187 | 9.84506 | 22992 ft | 407 kts | 135° |
| 2026-05-04 15:46 | 49.35305 | 9.87756 | 22990 ft | 407 kts | 135° |
| 2026-05-04 15:46 | 49.33422 | 9.91003 | 22994 ft | 407 kts | 135° |
| 2026-05-04 15:46 | 49.31540 | 9.94243 | 22991 ft | 407 kts | 135° |
| 2026-05-04 15:46 | 49.29655 | 9.97487 | 22991 ft | 407 kts | 135° |
| 2026-05-04 15:47 | 49.27772 | 10.00722 | 22995 ft | 407 kts | 135° |
| 2026-05-04 15:47 | 49.25887 | 10.03957 | 22991 ft | 407 kts | 135° |
| 2026-05-04 15:47 | 49.24001 | 10.07191 | 22987 ft | 407 kts | 135° |
| 2026-05-04 15:47 | 49.22113 | 10.10424 | 22994 ft | 408 kts | 135° |
| 2026-05-04 15:48 | 49.20220 | 10.13660 | 22995 ft | 407 kts | 135° |
| 2026-05-04 15:48 | 49.18331 | 10.16890 | 22989 ft | 408 kts | 135° |
| 2026-05-04 15:48 | 49.14545 | 10.23363 | 22990 ft | 408 kts | 135° |
| 2026-05-04 15:49 | 49.12638 | 10.26564 | 22993 ft | 408 kts | 136° |
| 2026-05-04 15:49 | 49.10685 | 10.29710 | 22889 ft | 408 kts | 137° |
| 2026-05-04 15:49 | 49.08720 | 10.32838 | 22623 ft | 407 kts | 137° |
| 2026-05-04 15:49 | 49.06768 | 10.35947 | 22353 ft | 404 kts | 137° |
| 2026-05-04 15:50 | 49.04829 | 10.39043 | 22086 ft | 403 kts | 137° |
| 2026-05-04 15:50 | 49.02899 | 10.42131 | 21826 ft | 401 kts | 137° |
| 2026-05-04 15:50 | 49.00981 | 10.45201 | 21565 ft | 400 kts | 137° |
| 2026-05-04 15:50 | 48.99063 | 10.48268 | 21303 ft | 399 kts | 137° |
| 2026-05-04 15:51 | 48.97153 | 10.51314 | 21048 ft | 397 kts | 137° |
| 2026-05-04 15:51 | 48.95249 | 10.54345 | 20792 ft | 396 kts | 137° |
| 2026-05-04 15:51 | 48.93351 | 10.57366 | 20536 ft | 394 kts | 137° |
| 2026-05-04 15:51 | 48.91451 | 10.60386 | 19979 ft | 397 kts | 137° |
| 2026-05-04 15:52 | 48.89530 | 10.63434 | 19134 ft | 402 kts | 137° |
| 2026-05-04 15:52 | 48.87575 | 10.66532 | 18311 ft | 406 kts | 136° |
| 2026-05-04 15:52 | 48.85626 | 10.69622 | 17647 ft | 402 kts | 136° |
| 2026-05-04 15:52 | 48.83731 | 10.72626 | 17164 ft | 394 kts | 136° |
| 2026-05-04 15:53 | 48.81862 | 10.75585 | 16673 ft | 385 kts | 136° |
| 2026-05-04 15:53 | 48.79998 | 10.78524 | 15879 ft | 386 kts | 136° |
| 2026-05-04 15:53 | 48.78135 | 10.81448 | 15307 ft | 382 kts | 136° |
| 2026-05-04 15:53 | 48.76319 | 10.84297 | 15043 ft | 368 kts | 136° |
| 2026-05-04 15:54 | 48.74581 | 10.87021 | 14956 ft | 351 kts | 137° |
| 2026-05-04 15:54 | 48.73409 | 10.88703 | 14949 ft | 351 kts | 141° |
| 2026-05-04 15:54 | 48.71522 | 10.91044 | 14832 ft | 349 kts | 144° |
| 2026-05-04 15:54 | 48.69620 | 10.93322 | 14465 ft | 349 kts | 144° |
| 2026-05-04 15:55 | 48.67714 | 10.95593 | 14103 ft | 346 kts | 144° |
| 2026-05-04 15:55 | 48.65823 | 10.97833 | 13803 ft | 345 kts | 144° |
| 2026-05-04 15:55 | 48.63936 | 11.00059 | 13332 ft | 343 kts | 144° |
| 2026-05-04 15:55 | 48.62059 | 11.02275 | 12770 ft | 341 kts | 144° |
| 2026-05-04 15:56 | 48.60193 | 11.04482 | 12250 ft | 339 kts | 144° |
| 2026-05-04 15:56 | 48.58347 | 11.06665 | 11723 ft | 336 kts | 144° |
| 2026-05-04 15:56 | 48.56511 | 11.08841 | 11198 ft | 334 kts | 144° |
| 2026-05-04 15:56 | 48.54687 | 11.11004 | 10678 ft | 332 kts | 144° |
| 2026-05-04 15:57 | 48.52896 | 11.13136 | 10332 ft | 325 kts | 144° |
| 2026-05-04 15:57 | 48.51150 | 11.15218 | 10139 ft | 313 kts | 144° |
| 2026-05-04 15:57 | 48.49477 | 11.17218 | 10015 ft | 301 kts | 144° |
| 2026-05-04 15:57 | 48.47877 | 11.19138 | 9843 ft | 286 kts | 144° |
| 2026-05-04 15:58 | 48.46363 | 11.20963 | 9337 ft | 281 kts | 144° |
| 2026-05-04 15:58 | 48.44838 | 11.22789 | 8720 ft | 279 kts | 144° |
| 2026-05-04 15:58 | 48.43313 | 11.24584 | 8127 ft | 278 kts | 143° |
| 2026-05-04 15:58 | 48.42048 | 11.26774 | 7544 ft | 280 kts | 118° |
| 2026-05-04 15:59 | 48.41266 | 11.29435 | 7134 ft | 273 kts | 114° |
| 2026-05-04 15:59 | 48.40543 | 11.32024 | 6764 ft | 266 kts | 114° |
| 2026-05-04 15:59 | 48.39846 | 11.34502 | 6315 ft | 264 kts | 114° |
| 2026-05-04 15:59 | 48.39130 | 11.37015 | 5944 ft | 256 kts | 114° |
| 2026-05-04 16:00 | 48.38433 | 11.39445 | 5556 ft | 251 kts | 114° |
| 2026-05-04 16:00 | 48.37739 | 11.41846 | 5097 ft | 250 kts | 114° |
| 2026-05-04 16:00 | 48.37045 | 11.44213 | 4723 ft | 244 kts | 114° |
| 2026-05-04 16:00 | 48.36359 | 11.46542 | 4291 ft | 242 kts | 114° |
| 2026-05-04 16:01 | 48.35682 | 11.48828 | 4064 ft | 241 kts | 114° |
| 2026-05-04 16:01 | 48.34956 | 11.51269 | 4003 ft | 264 kts | 114° |
| 2026-05-04 16:01 | 48.34511 | 11.53846 | 4007 ft | 248 kts | 90° |
| 2026-05-04 16:01 | 48.34639 | 11.56360 | 3981 ft | 234 kts | 82° |
| 2026-05-04 16:02 | 48.34854 | 11.58725 | 3815 ft | 226 kts | 82° |
| 2026-05-04 16:02 | 48.35060 | 11.61064 | 3518 ft | 225 kts | 83° |
| 2026-05-04 16:02 | 48.35422 | 11.65681 | 2966 ft | 220 kts | 83° |
| 2026-05-04 16:03 | 48.35595 | 11.67910 | 2651 ft | 207 kts | 83° |
| 2026-05-04 16:03 | 48.35752 | 11.69970 | 2393 ft | 190 kts | 83° |
| 2026-05-04 16:03 | 48.35898 | 11.71857 | 2141 ft | 174 kts | 82° |
| 2026-05-04 16:03 | 48.36032 | 11.73598 | 1909 ft | 161 kts | 82° |
| 2026-05-04 16:04 | 48.36155 | 11.75211 | 1701 ft | 151 kts | 82° |
| 2026-05-04 16:04 | 48.36392 | 11.78293 | 1462 ft | 130 kts | 81° |
| 2026-05-04 16:04 | 48.36451 | 11.78952 | 1460 ft | 30 kts | 86° |
| 2026-05-04 16:05 | 48.36438 | 11.79278 | 1470 ft | 32 kts | 102° |
| 2026-05-04 16:05 | 48.36361 | 11.79563 | 1461 ft | 26 kts | 115° |
| 2026-05-04 16:05 | 48.36319 | 11.79697 | 1461 ft | 0 kts | 115° |
| 2026-05-04 16:07 | 48.36314 | 11.79714 | 1462 ft | 0 kts | 115° |
| 2026-05-04 16:08 | 48.36311 | 11.79723 | 1456 ft | 4 kts | 115° |
| 2026-05-04 16:08 | 48.36267 | 11.79806 | 1467 ft | 8 kts | 143° |
| 2026-05-04 16:09 | 48.36218 | 11.79840 | 1465 ft | 0 kts | 172° |
| 2026-05-04 16:10 | 48.36228 | 11.79838 | 1465 ft | 1 kts | 245° |
| 2026-05-04 16:11 | 48.36216 | 11.79512 | 1465 ft | 0 kts | 251° |
| 2026-05-04 16:11 | 48.36181 | 11.79473 | 1465 ft | 12 kts | 187° |
| 2026-05-04 16:12 | 48.36175 | 11.79473 | 1465 ft | 0 kts | 181° |
| 2026-05-04 16:13 | 48.36101 | 11.79479 | 1461 ft | 13 kts | 174° |
| 2026-05-04 16:13 | 48.35979 | 11.79504 | 1465 ft | 0 kts | 173° |
| 2026-05-04 16:14 | 48.35897 | 11.79517 | 1462 ft | 12 kts | 175° |
| 2026-05-04 16:15 | 48.35562 | 11.79574 | 1463 ft | 17 kts | 172° |
| 2026-05-04 16:16 | 48.35347 | 11.79612 | 1465 ft | 15 kts | 173° |
| 2026-05-04 16:16 | 48.35243 | 11.79748 | 1464 ft | 10 kts | 85° |
| 2026-05-04 16:17 | 48.35245 | 11.79774 | 1467 ft | 0 kts | 84° |